createdAt,value
2023-02-01T00:04:39.378Z,24.10
2023-02-01T00:10:50.064Z,23.90
2023-02-01T00:17:00.330Z,23.70
2023-02-01T00:23:10.609Z,23.70
2023-02-01T00:29:20.155Z,23.90
2023-02-01T00:35:31.596Z,24.10
2023-02-01T00:41:39.599Z,24.00
2023-02-01T00:47:50.918Z,23.80
2023-02-01T00:54:00.926Z,23.60
2023-02-01T01:00:11.115Z,23.50
2023-02-01T01:06:21.083Z,23.60
2023-02-01T01:12:30.844Z,23.90
2023-02-01T01:18:41.186Z,24.00
2023-02-01T01:24:48.727Z,23.80
2023-02-01T01:30:56.422Z,23.60
2023-02-01T01:37:08.224Z,23.40
2023-02-01T01:43:22.412Z,23.30
2023-02-01T01:49:33.593Z,23.30
2023-02-01T01:55:43.609Z,23.20
2023-02-01T02:01:53.883Z,23.10
2023-02-01T02:08:07.032Z,23.00
2023-02-01T02:14:15.533Z,22.90
2023-02-01T02:20:45.163Z,22.90
2023-02-01T02:27:34.237Z,22.80
2023-02-01T02:33:51.926Z,22.70
2023-02-01T02:40:06.755Z,22.70
2023-02-01T02:46:37.373Z,22.60
2023-02-01T02:53:07.506Z,22.50
2023-02-01T03:05:32.687Z,22.40
2023-02-01T03:12:00.591Z,22.40
2023-02-01T03:18:09.256Z,22.40
2023-02-01T03:24:22.277Z,22.30
2023-02-01T03:30:34.894Z,22.30
2023-02-01T03:36:44.989Z,22.20
2023-02-01T03:42:57.494Z,22.20
2023-02-01T03:49:11.285Z,22.10
2023-02-01T03:55:21.645Z,22.00
2023-02-01T04:01:33.890Z,22.00
2023-02-01T04:07:43.384Z,22.00
2023-02-01T04:13:53.421Z,21.90
2023-02-01T04:20:04.041Z,21.80
2023-02-01T04:26:15.088Z,21.80
2023-02-01T04:32:24.504Z,22.00
2023-02-01T04:38:35.362Z,22.20
2023-02-01T04:44:45.313Z,22.00
2023-02-01T04:50:55.608Z,21.90
2023-02-01T04:57:07.854Z,21.80
2023-02-01T05:03:23.105Z,21.80
2023-02-01T05:09:36.844Z,22.00
2023-02-01T05:15:47.832Z,22.10
2023-02-01T05:22:00.197Z,21.90
2023-02-01T05:28:09.895Z,21.80
2023-02-01T05:34:19.190Z,21.80
2023-02-01T05:40:28.672Z,22.00
2023-02-01T05:46:40.118Z,22.10
2023-02-01T05:52:50.140Z,21.90
2023-02-01T06:05:12.917Z,21.80
2023-02-01T06:11:32.344Z,22.10
2023-02-01T06:17:35.497Z,22.00
2023-02-01T06:23:44.162Z,21.80
2023-02-01T06:29:56.697Z,21.80
2023-02-01T06:36:07.793Z,22.00
2023-02-01T06:42:17.523Z,22.10
2023-02-01T06:48:27.590Z,21.90
2023-02-01T06:54:37.576Z,21.70
2023-02-01T07:00:48.774Z,21.70
2023-02-01T07:06:59.212Z,22.00
2023-02-01T07:13:08.382Z,22.00
2023-02-01T07:19:16.966Z,21.80
2023-02-01T07:25:24.989Z,21.70
2023-02-01T07:31:34.383Z,21.90
2023-02-01T07:37:45.976Z,22.10
2023-02-01T07:43:58.327Z,22.00
2023-02-01T07:50:09.891Z,21.80
2023-02-01T07:56:18.102Z,21.70
2023-02-01T08:02:28.144Z,21.90
2023-02-01T08:08:42.357Z,22.10
2023-02-01T08:14:49.936Z,22.00
2023-02-01T08:20:58.162Z,21.80
2023-02-01T08:27:11.848Z,21.70
2023-02-01T08:33:23.470Z,21.90
2023-02-01T08:39:32.824Z,22.10
2023-02-01T08:45:44.448Z,21.90
2023-02-01T08:51:58.496Z,21.70
2023-02-01T08:58:08.289Z,21.80
2023-02-01T09:04:17.644Z,22.00
2023-02-01T09:10:35.072Z,22.10
2023-02-01T09:16:42.268Z,21.80
2023-02-01T09:22:52.046Z,21.70
2023-02-01T09:29:01.801Z,21.90
2023-02-01T09:35:12.412Z,22.10
2023-02-01T09:41:31.484Z,22.00
2023-02-01T09:47:40.281Z,21.80
2023-02-01T09:53:52.359Z,21.80
2023-02-01T10:00:05.807Z,22.00
2023-02-01T10:06:33.298Z,22.10
2023-02-01T10:13:28.353Z,21.90
2023-02-01T10:19:42.867Z,21.70
2023-02-01T10:25:56.754Z,21.90
2023-02-01T10:32:09.471Z,22.10
2023-02-01T10:38:22.500Z,22.00
2023-02-01T10:44:32.657Z,21.80
2023-02-01T10:50:42.339Z,21.80
2023-02-01T10:56:51.869Z,22.00
2023-02-01T11:03:00.408Z,22.10
2023-02-01T11:09:14.584Z,21.80
2023-02-01T11:15:27.301Z,21.70
2023-02-01T11:21:40.775Z,21.90
2023-02-01T11:27:55.398Z,22.10
2023-02-01T11:34:02.095Z,22.00
2023-02-01T11:40:19.156Z,21.80
2023-02-01T11:46:26.705Z,21.80
2023-02-01T11:52:48.852Z,22.00
2023-02-01T11:59:16.563Z,22.10
2023-02-01T12:05:36.682Z,21.90
2023-02-01T12:11:55.568Z,21.60
2023-02-01T12:18:28.062Z,21.80
2023-02-01T12:25:03.563Z,22.00
2023-02-01T12:38:03.787Z,22.50
2023-02-01T12:44:14.300Z,22.70
2023-02-01T12:50:29.312Z,22.90
2023-02-01T12:56:42.113Z,23.00
2023-02-01T13:02:53.958Z,23.20
2023-02-01T13:09:09.769Z,23.20
2023-02-01T13:15:25.292Z,23.00
2023-02-01T13:21:38.189Z,23.00
2023-02-01T13:27:55.604Z,23.20
2023-02-01T13:34:40.503Z,23.50
2023-02-01T13:40:51.080Z,23.40
2023-02-01T13:47:03.242Z,23.20
2023-02-01T13:53:18.345Z,23.50
2023-02-01T14:00:07.920Z,23.70
2023-02-01T14:06:46.494Z,23.60
2023-02-01T14:12:54.612Z,23.30
2023-02-01T14:19:07.913Z,23.30
2023-02-01T14:25:23.217Z,23.60
2023-02-01T14:31:48.144Z,23.80
2023-02-01T14:37:59.255Z,23.70
2023-02-01T14:44:32.383Z,23.50
2023-02-01T14:50:43.904Z,23.50
2023-02-01T14:56:55.550Z,23.70
2023-02-01T15:03:21.069Z,24.00
2023-02-01T15:09:36.005Z,23.80
2023-02-01T15:15:47.911Z,23.60
2023-02-01T15:21:58.009Z,23.60
2023-02-01T15:28:09.232Z,23.70
2023-02-01T15:34:21.469Z,23.80
2023-02-01T15:40:36.564Z,23.90
2023-02-01T15:46:49.568Z,23.70
2023-02-01T15:53:02.547Z,23.50
2023-02-01T15:59:15.967Z,23.40
2023-02-01T16:05:40.868Z,23.60
2023-02-01T16:12:04.532Z,23.90
2023-02-01T16:18:13.443Z,24.20
2023-02-01T16:24:25.884Z,24.20
2023-02-01T16:30:38.004Z,24.10
2023-02-01T16:36:52.343Z,24.00
2023-02-01T16:43:05.614Z,24.30
2023-02-01T16:49:20.428Z,24.60
2023-02-01T16:55:31.239Z,24.40
2023-02-01T17:01:42.566Z,24.20
2023-02-01T17:07:53.688Z,23.90
2023-02-01T17:14:03.869Z,23.70
2023-02-01T17:20:23.068Z,23.80
2023-02-01T17:26:38.970Z,24.20
2023-02-01T17:32:51.620Z,24.50
2023-02-01T17:39:06.515Z,24.50
2023-02-01T17:45:27.158Z,24.30
2023-02-01T17:51:41.072Z,24.20
2023-02-01T17:57:50.546Z,24.20
2023-02-01T18:04:03.772Z,24.30
2023-02-01T18:10:19.177Z,24.30
2023-02-01T18:16:30.492Z,24.60
2023-02-01T18:22:43.416Z,24.70
2023-02-01T18:28:51.148Z,24.60
2023-02-01T18:35:04.225Z,24.30
2023-02-01T18:41:16.122Z,24.10
2023-02-01T18:47:28.446Z,23.90
2023-02-01T18:53:39.573Z,23.90
2023-02-01T18:59:51.545Z,24.20
2023-02-01T19:06:06.409Z,24.40
2023-02-01T19:12:16.796Z,24.10
2023-02-01T19:18:28.638Z,23.90
2023-02-01T19:24:38.217Z,23.70
2023-02-01T19:30:48.927Z,23.90
2023-02-01T19:36:57.802Z,24.10
2023-02-01T19:43:09.629Z,24.30
2023-02-01T19:49:18.144Z,24.20
2023-02-01T19:55:28.272Z,23.90
2023-02-01T20:01:43.517Z,23.70
2023-02-01T20:07:53.930Z,23.70
2023-02-01T20:14:03.414Z,24.00
2023-02-01T20:20:14.108Z,24.20
2023-02-01T20:26:24.372Z,24.00
2023-02-01T20:32:35.606Z,23.80
2023-02-01T20:38:45.354Z,23.80
2023-02-01T20:44:54.991Z,23.90
2023-02-01T20:51:05.386Z,24.10
2023-02-01T20:57:14.980Z,24.00
2023-02-01T21:03:23.506Z,23.80
2023-02-01T21:09:33.217Z,23.70
2023-02-01T21:15:44.263Z,23.90
2023-02-01T21:21:57.407Z,24.00
2023-02-01T21:28:07.558Z,24.10
2023-02-01T21:34:18.472Z,23.90
2023-02-01T21:40:26.101Z,23.70
2023-02-01T21:46:37.830Z,23.60
2023-02-01T21:52:48.567Z,23.60
2023-02-01T21:58:57.125Z,23.70
2023-02-01T22:05:13.539Z,23.90
2023-02-01T22:11:25.883Z,23.90
2023-02-01T22:17:35.077Z,23.80
2023-02-01T22:23:43.358Z,23.60
2023-02-01T22:29:52.985Z,23.50
2023-02-01T22:36:06.417Z,23.60
2023-02-01T22:42:15.588Z,23.80
2023-02-01T22:48:23.683Z,23.90
2023-02-01T22:54:34.554Z,23.70
2023-02-01T23:00:46.658Z,23.50
2023-02-01T23:06:55.694Z,23.50
2023-02-01T23:13:08.483Z,23.70
2023-02-01T23:19:20.439Z,23.80
2023-02-01T23:25:29.096Z,23.70
2023-02-01T23:31:40.494Z,23.50
2023-02-01T23:37:53.398Z,23.60
2023-02-01T23:44:06.101Z,23.70
2023-02-01T23:50:22.714Z,23.80
2023-02-01T23:56:33.892Z,23.60
